Dades meteomassalio
Diari Summary for Febrer 13, 2018 Units:  English    Metric   Both
« Previous Day
Next Day »
Diari Semanal Mensual Anual Personalitzat
  Maxima: Minima: Mijana:
Temperatura: TemperatureC °F -4.4 °F 3.4 °F
Rosada: DewpointC °F -6.3 °F -1.5 °F
Humitat: Humidity % 46 % 71 %
Velocitat del vent: WindSpeedKMH mph 0.0 mph 10.5 mph
Racha vent: WindSpeedGustKMH mph - -
Vent:- - WNW
Pressio: PressurehPa in 1018.8 in -
Pluja: 0.0 in    
Historical Graphs
 
 
Tabular Data for Febrer 13, 2018
Time Temperature Dew Point Pressure Wind Wind Speed Wind Gust Humidity Rainfall Rate (Hourly) solar Conditions
TemperatureC °F DewpointC °F PressurehPa in Calm     Humidity % HourlyPrecipMM in SolarRadiationWatts/m^2 W/m2 Conditions
00:03 2.8 °F -1.9 °F 1023.6 in NW 20.4 mph 20.4 mph 71 % 0.0 in 0.0 W/m2 RA
00:08 2.8 °F -2.2 °F 1023.6 in NW 18.5 mph 18.5 mph 70 % 0.0 in 0.0 W/m2 CLR
00:13 2.8 °F -2.2 °F 1023.6 in NW 18.5 mph 18.5 mph 70 % 0.0 in 0.0 W/m2 CLR
00:18 2.8 °F -2.2 °F 1023.2 in NW 18.5 mph 18.5 mph 70 % 0.0 in 0.0 W/m2 CLR
00:23 2.2 °F -2.7 °F 1023.6 in NW 14.8 mph 14.8 mph 70 % 0.0 in 0.0 W/m2 CLR
00:28 2.2 °F -2.5 °F 1023.6 in NW 14.8 mph 14.8 mph 71 % 0.0 in 0.0 W/m2 CLR
00:33 2.2 °F -2.5 °F 1023.6 in NW 14.8 mph 14.8 mph 71 % 0.0 in 0.0 W/m2 CLR
00:38 2.2 °F -2.5 °F 1023.6 in NW 18.5 mph 18.5 mph 71 % 0.0 in 0.0 W/m2 CLR
00:43 2.2 °F -2.7 °F 1023.6 in NW 18.5 mph 18.5 mph 70 % 0.0 in 0.0 W/m2 CLR
00:48 2.2 °F -2.7 °F 1023.6 in NW 17.7 mph 17.7 mph 70 % 0.0 in 0.0 W/m2 CLR
00:53 2.2 °F -2.7 °F 1023.6 in NW 17.7 mph 17.7 mph 70 % 0.0 in 0.0 W/m2 CLR
00:58 2.2 °F -2.7 °F 1023.6 in NW 25.9 mph 25.9 mph 70 % 0.0 in 0.0 W/m2 CLR
01:03 2.2 °F -2.7 °F 1023.6 in WNW 22.2 mph 22.2 mph 70 % 0.0 in 0.0 W/m2 CLR
01:08 2.2 °F -2.9 °F 1023.6 in NW 18.5 mph 18.5 mph 69 % 0.0 in 0.0 W/m2 CLR
01:13 2.2 °F -2.7 °F 1023.6 in NW 17.7 mph 17.7 mph 70 % 0.0 in 0.0 W/m2 CLR
01:18 2.2 °F -2.7 °F 1023.6 in NW 18.5 mph 18.5 mph 70 % 0.0 in 0.0 W/m2 CLR
01:23 2.2 °F -2.7 °F 1023.6 in NW 18.5 mph 18.5 mph 70 % 0.0 in 0.0 W/m2 CLR
01:28 2.2 °F -2.7 °F 1023.6 in WNW 16.7 mph 16.7 mph 70 % 0.0 in 0.0 W/m2 CLR
01:33 1.7 °F -3.1 °F 1023.6 in NW 18.5 mph 18.5 mph 71 % 0.0 in 0.0 W/m2 CLR
01:38 1.7 °F -3.1 °F 1023.6 in NW 18.5 mph 18.5 mph 71 % 0.0 in 0.0 W/m2 CLR
01:43 1.7 °F -3.1 °F 1023.6 in NW 14.5 mph 14.5 mph 71 % 0.0 in 0.0 W/m2 CLR
01:48 1.7 °F -3.1 °F 1023.6 in NW 14.5 mph 14.5 mph 71 % 0.0 in 0.0 W/m2 CLR
01:53 1.1 °F -3.6 °F 1023.6 in NW 14.8 mph 14.8 mph 71 % 0.0 in 0.0 W/m2 CLR
01:58 1.1 °F -3.6 °F 1023.6 in NW 17.7 mph 17.7 mph 71 % 0.0 in 0.0 W/m2 CLR
02:03 1.1 °F -3.6 °F 1023.6 in NW 18.5 mph 18.5 mph 71 % 0.0 in 0.0 W/m2 CLR
02:08 0.6 °F -4.1 °F 1023.6 in WNW 16.7 mph 16.7 mph 71 % 0.0 in 0.0 W/m2 CLR
02:13 0.6 °F -4.1 °F 1023.6 in NW 14.8 mph 14.8 mph 71 % 0.0 in 0.0 W/m2 CLR
02:18 0.0 °F -4.6 °F 1023.6 in NW 18.5 mph 18.5 mph 71 % 0.0 in 0.0 W/m2 CLR
02:23 0.0 °F -4.6 °F 1023.6 in NW 16.7 mph 16.7 mph 71 % 0.0 in 0.0 W/m2 CLR
02:28 0.0 °F -4.6 °F 1023.6 in NW 14.8 mph 14.8 mph 71 % 0.0 in 0.0 W/m2 CLR
02:33 0.0 °F -4.8 °F 1023.6 in NW 14.8 mph 14.8 mph 70 % 0.0 in 0.0 W/m2 CLR
02:38 0.0 °F -4.8 °F 1023.6 in WNW 16.7 mph 16.7 mph 70 % 0.0 in 0.0 W/m2 CLR
02:43 0.6 °F -4.3 °F 1023.6 in WNW 16.7 mph 16.7 mph 70 % 0.0 in 0.0 W/m2 CLR
02:48 0.6 °F -4.3 °F 1023.6 in WNW 14.8 mph 14.8 mph 70 % 0.0 in 0.0 W/m2 CLR
02:53 0.0 °F -4.8 °F 1023.6 in WNW 16.1 mph 16.1 mph 70 % 0.0 in 0.0 W/m2 CLR
02:58 0.0 °F -5.0 °F 1023.6 in WNW 16.7 mph 16.7 mph 69 % 0.0 in 0.0 W/m2 CLR
03:03 0.0 °F -5.0 °F 1023.6 in WNW 18.5 mph 18.5 mph 69 % 0.0 in 0.0 W/m2 CLR
03:08 0.6 °F -4.5 °F 1023.6 in WNW 18.5 mph 18.5 mph 69 % 0.0 in 0.0 W/m2 CLR
03:13 0.6 °F -4.5 °F 1023.6 in NW 16.7 mph 16.7 mph 69 % 0.0 in 0.0 W/m2 CLR
03:18 1.1 °F -3.8 °F 1023.6 in NW 18.5 mph 18.5 mph 70 % 0.0 in 0.0 W/m2 CLR
03:23 1.7 °F -3.2 °F 1023.6 in NW 14.8 mph 14.8 mph 70 % 0.0 in 0.0 W/m2 CLR
03:28 1.1 °F -3.8 °F 1023.2 in NW 13.0 mph 13.0 mph 70 % 0.0 in 0.0 W/m2 CLR
03:33 1.1 °F -3.8 °F 1023.2 in NW 9.3 mph 9.3 mph 70 % 0.0 in 0.0 W/m2 CLR
03:38 1.1 °F -3.8 °F 1023.2 in NNW 7.4 mph 7.4 mph 70 % 0.0 in 0.0 W/m2 CLR
03:43 0.6 °F -4.1 °F 1023.2 in NW 9.3 mph 9.3 mph 71 % 0.0 in 0.0 W/m2 CLR
03:48 0.0 °F -4.6 °F 1023.2 in Calm     71 % 0.0 in 0.0 W/m2 CLR
03:53 -0.6 °F -5.0 °F 1022.9 in Calm     72 % 0.0 in 0.0 W/m2 CLR
03:58 -0.6 °F -4.8 °F 1022.9 in Calm     73 % 0.0 in 0.0 W/m2 CLR
04:03 -1.1 °F -5.2 °F 1023.2 in Calm     74 % 0.0 in 0.0 W/m2 CLR
04:08 -1.1 °F -4.8 °F 1023.2 in Calm     76 % 0.0 in 0.0 W/m2 CLR
04:13 -1.1 °F -4.6 °F 1023.2 in Calm     77 % 0.0 in 0.0 W/m2 CLR
04:18 -1.1 °F -4.4 °F 1022.9 in Calm     78 % 0.0 in 0.0 W/m2 CLR
04:23 -1.7 °F -5.0 °F 1022.9 in Calm     78 % 0.0 in 0.0 W/m2 CLR
04:28 -1.7 °F -5.0 °F 1022.9 in Calm     78 % 0.0 in 0.0 W/m2 CLR
04:33 -1.7 °F -4.8 °F 1022.9 in Calm     79 % 0.0 in 0.0 W/m2 CLR
04:34 -1.7 °F -4.8 °F 1022.9 in Calm     79 % 0.0 in 0.0 W/m2 CLR
04:39 -1.7 °F -4.8 °F 1022.9 in Calm     79 % 0.0 in 0.0 W/m2 CLR
04:44 -1.7 °F -4.8 °F 1022.9 in Calm     79 % 0.0 in 0.0 W/m2 CLR
04:49 -1.7 °F -4.8 °F 1022.9 in WNW 5.6 mph 5.6 mph 79 % 0.0 in 0.0 W/m2 CLR
04:54 -1.7 °F -5.0 °F 1022.9 in Calm     78 % 0.0 in 0.0 W/m2 CLR
04:59 -1.7 °F -5.0 °F 1022.9 in Calm     78 % 0.0 in 0.0 W/m2 CLR
05:04 -1.7 °F -5.0 °F 1022.6 in Calm     78 % 0.0 in 0.0 W/m2 CLR
05:09 -1.7 °F -5.0 °F 1022.9 in Calm     78 % 0.0 in 0.0 W/m2 CLR
05:14 -1.7 °F -5.0 °F 1022.9 in Calm     78 % 0.0 in 0.0 W/m2 CLR
05:19 -1.7 °F -5.0 °F 1022.6 in Calm     78 % 0.0 in 0.0 W/m2 CLR
05:24 -1.7 °F -4.8 °F 1022.6 in Calm     79 % 0.0 in 0.0 W/m2 CLR
05:29 -2.2 °F -5.2 °F 1022.6 in Calm     80 % 0.0 in 0.0 W/m2 CLR
05:34 -2.8 °F -5.6 °F 1022.6 in Calm     81 % 0.0 in 0.0 W/m2 CLR
05:39 -2.8 °F -5.4 °F 1022.6 in Calm     82 % 0.0 in 0.0 W/m2 CLR
05:44 -3.3 °F -5.8 °F 1022.6 in Calm     83 % 0.0 in 0.0 W/m2 CLR
05:49 -3.3 °F -5.7 °F 1022.6 in Calm     84 % 0.0 in 0.0 W/m2 CLR
05:54 -3.3 °F -5.7 °F 1022.6 in Calm     84 % 0.0 in 0.0 W/m2 CLR
05:59 -3.3 °F -5.7 °F 1022.6 in Calm     84 % 0.0 in 0.0 W/m2 CLR
06:04 -3.3 °F -5.5 °F 1022.6 in Calm     85 % 0.0 in 0.0 W/m2 CLR
06:09 -3.3 °F -5.5 °F 1022.6 in Calm     85 % 0.0 in 0.0 W/m2 CLR
06:14 -3.3 °F -5.3 °F 1022.6 in Calm     86 % 0.0 in 0.0 W/m2 CLR
06:19 -3.3 °F -5.3 °F 1022.6 in Calm     86 % 0.0 in 0.0 W/m2 CLR
06:24 -3.3 °F -5.3 °F 1022.6 in Calm     86 % 0.0 in 0.0 W/m2 CLR
06:29 -3.9 °F -5.9 °F 1022.6 in Calm     86 % 0.0 in 0.0 W/m2 CLR
06:34 -3.9 °F -5.9 °F 1022.2 in Calm     86 % 0.0 in 0.0 W/m2 CLR
06:39 -3.9 °F -5.9 °F 1022.6 in Calm     86 % 0.0 in 0.0 W/m2 CLR
06:44 -3.9 °F -5.9 °F 1022.6 in Calm     86 % 0.0 in 0.0 W/m2 CLR
06:49 -3.3 °F -5.2 °F 1022.6 in Calm     87 % 0.0 in 0.0 W/m2 CLR
06:54 -3.9 °F -5.9 °F 1022.2 in Calm     86 % 0.0 in 0.0 W/m2 CLR
06:59 -3.9 °F -5.9 °F 1022.2 in Calm     86 % 0.0 in 0.0 W/m2 CLR
07:04 -3.9 °F -5.9 °F 1022.2 in Calm     86 % 0.0 in 0.0 W/m2 CLR
07:09 -3.9 °F -5.9 °F 1022.2 in Calm     86 % 0.0 in 0.0 W/m2 CLR
07:14 -3.9 °F -5.9 °F 1022.2 in Calm     86 % 0.0 in 0.0 W/m2 CLR
07:19 -3.9 °F -5.7 °F 1022.2 in Calm     87 % 0.0 in 0.0 W/m2 CLR
07:24 -4.4 °F -6.3 °F 1022.2 in Calm     87 % 0.0 in 0.0 W/m2 CLR
07:30 -3.9 °F -5.7 °F 1022.2 in Calm     87 % 0.0 in 0.0 W/m2 CLR
07:35 -3.9 °F -5.7 °F 1022.2 in Calm     87 % 0.0 in 0.0 W/m2 CLR
07:40 -3.9 °F -5.7 °F 1022.2 in Calm     87 % 0.0 in 0.0 W/m2 CLR
07:45 -3.9 °F -5.7 °F 1022.2 in Calm     87 % 0.0 in 0.0 W/m2 CLR
07:50 -4.4 °F -6.1 °F 1022.2 in Calm     88 % 0.0 in 0.0 W/m2 OVC
07:55 -4.4 °F -6.1 °F 1022.2 in Calm     88 % 0.0 in 0.0 W/m2 OVC
08:00 -3.9 °F -5.6 °F 1022.6 in Calm     88 % 0.0 in 5.0 W/m2 OVC
08:05 -3.9 °F -5.6 °F 1022.2 in Calm     88 % 0.0 in 9.0 W/m2 BKN
08:10 -4.4 °F -6.1 °F 1022.2 in Calm     88 % 0.0 in 9.0 W/m2 BKN
08:15 -4.4 °F -6.0 °F 1022.2 in Calm     89 % 0.0 in 11.0 W/m2 BKN
08:20 -3.9 °F -5.4 °F 1022.6 in Calm     89 % 0.0 in 14.0 W/m2 BKN
08:25 -3.9 °F -5.4 °F 1022.2 in Calm     89 % 0.0 in 21.0 W/m2 BKN
08:30 -3.9 °F -5.4 °F 1022.2 in Calm     89 % 0.0 in 30.0 W/m2 BKN
08:35 -3.9 °F -5.4 °F 1022.6 in Calm     89 % 0.0 in 44.0 W/m2 BKN
08:40 -3.9 °F -5.4 °F 1022.6 in Calm     89 % 0.0 in 46.0 W/m2 SCT
08:45 -3.9 °F -5.6 °F 1022.6 in Calm     88 % 0.0 in 74.0 W/m2 FEW
08:50 -3.9 °F -5.6 °F 1022.6 in Calm     88 % 0.0 in 72.0 W/m2 FEW
08:55 -3.9 °F -5.6 °F 1022.6 in Calm     88 % 0.0 in 100.0 W/m2 CLR
09:00 -3.9 °F -5.6 °F 1022.6 in Calm     88 % 0.0 in 113.0 W/m2 CLR
09:05 -3.3 °F -5.1 °F 1022.6 in Calm     88 % 0.0 in 95.0 W/m2 CLR
09:10 -2.8 °F -4.5 °F 1022.6 in Calm     88 % 0.0 in 72.0 W/m2 CLR
09:15 -2.2 °F -3.9 °F 1022.6 in Calm     88 % 0.0 in 128.0 W/m2 CLR
09:20 -2.2 °F -4.2 °F 1022.6 in Calm     86 % 0.0 in 153.0 W/m2 CLR
09:25 -1.7 °F -3.8 °F 1022.6 in Calm     85 % 0.0 in 121.0 W/m2 CLR
09:30 -1.7 °F -4.0 °F 1022.6 in Calm     84 % 0.0 in 142.0 W/m2 CLR
09:35 -1.1 °F -3.6 °F 1022.6 in Calm     83 % 0.0 in 255.0 W/m2 CLR
09:40 -0.6 °F -3.4 °F 1022.6 in Calm     81 % 0.0 in 287.0 W/m2 CLR
09:45 -0.6 °F -3.8 °F 1022.6 in Calm     79 % 0.0 in 255.0 W/m2 CLR
09:50 0.0 °F -3.4 °F 1022.2 in Calm     78 % 0.0 in 415.0 W/m2 CLR
09:55 0.6 °F -2.8 °F 1022.2 in Calm     78 % 0.0 in 397.0 W/m2 CLR
10:00 1.1 °F -2.5 °F 1022.2 in Calm     77 % 0.0 in 192.0 W/m2 CLR
10:05 1.7 °F -2.3 °F 1022.2 in Calm     75 % 0.0 in 160.0 W/m2 CLR
10:10 1.7 °F -2.5 °F 1022.2 in Calm     74 % 0.0 in 185.0 W/m2 CLR
10:15 2.2 °F -1.9 °F 1022.2 in Calm     74 % 0.0 in 253.0 W/m2 CLR
10:20 2.2 °F -1.9 °F 1022.2 in Calm     74 % 0.0 in 104.0 W/m2 CLR
10:25 2.8 °F -1.8 °F 1022.2 in Calm     72 % 0.0 in 120.0 W/m2 CLR
10:30 2.8 °F -1.9 °F 1022.2 in Calm     71 % 0.0 in 450.0 W/m2 CLR
10:35 2.8 °F -2.2 °F 1022.2 in Calm     70 % 0.0 in 257.0 W/m2 CLR
10:40 3.9 °F -1.5 °F 1022.2 in Calm     68 % 0.0 in 510.0 W/m2 CLR
10:45 4.4 °F -1.2 °F 1022.2 in Calm     67 % 0.0 in 374.0 W/m2 CLR
10:50 5.6 °F -0.5 °F 1021.9 in Calm     65 % 0.0 in 462.0 W/m2 CLR
10:55 6.1 °F -0.6 °F 1021.9 in West 14.8 mph 14.8 mph 62 % 0.0 in 366.0 W/m2 CLR
11:00 7.2 °F -1.5 °F 1021.9 in WNW 19.3 mph 19.3 mph 54 % 0.0 in 267.0 W/m2 CLR
11:05 7.8 °F -1.7 °F 1021.9 in North 19.3 mph 19.3 mph 51 % 0.0 in 267.0 W/m2 CLR
11:10 7.8 °F -1.7 °F 1021.9 in NW 16.7 mph 16.7 mph 51 % 0.0 in 288.0 W/m2 CLR
11:15 7.8 °F -2.0 °F 1021.9 in West 16.7 mph 16.7 mph 50 % 0.0 in 294.0 W/m2 CLR
11:20 7.8 °F -2.3 °F 1021.6 in WNW 29.6 mph 29.6 mph 49 % 0.0 in 304.0 W/m2 CLR
11:25 7.8 °F -2.3 °F 1021.6 in NW 18.5 mph 18.5 mph 49 % 0.0 in 294.0 W/m2 CLR
11:30 8.3 °F -1.8 °F 1021.6 in NW 20.4 mph 20.4 mph 49 % 0.0 in 281.0 W/m2 CLR
11:35 8.3 °F -1.8 °F 1021.6 in West 24.1 mph 24.1 mph 49 % 0.0 in 236.0 W/m2 CLR
11:40 8.3 °F -2.1 °F 1021.2 in West 18.5 mph 18.5 mph 48 % 0.0 in 258.0 W/m2 CLR
11:45 8.3 °F -1.8 °F 1021.2 in WNW 18.5 mph 18.5 mph 49 % 0.0 in 260.0 W/m2 CLR
11:50 8.3 °F -1.8 °F 1021.2 in WNW 12.9 mph 12.9 mph 49 % 0.0 in 290.0 W/m2 CLR
11:55 8.3 °F -1.8 °F 1021.2 in West 16.1 mph 16.1 mph 49 % 0.0 in 350.0 W/m2 CLR
12:00 8.9 °F -1.8 °F 1021.2 in NW 18.5 mph 18.5 mph 47 % 0.0 in 320.0 W/m2 CLR
12:05 8.9 °F -1.6 °F 1020.9 in WNW 18.5 mph 18.5 mph 48 % 0.0 in 473.0 W/m2 CLR
12:10 9.4 °F -1.1 °F 1020.9 in NW 20.9 mph 20.9 mph 48 % 0.0 in 441.0 W/m2 CLR
12:15 9.4 °F -1.1 °F 1020.5 in WNW 20.4 mph 20.4 mph 48 % 0.0 in 373.0 W/m2 CLR
12:20 9.4 °F -1.1 °F 1020.5 in West 22.2 mph 22.2 mph 48 % 0.0 in 260.0 W/m2 CLR
12:25 9.4 °F -1.1 °F 1020.5 in NW 22.2 mph 22.2 mph 48 % 0.0 in 237.0 W/m2 CLR
12:30 9.4 °F -1.3 °F 1020.2 in WNW 18.5 mph 18.5 mph 47 % 0.0 in 214.0 W/m2 CLR
12:35 9.4 °F -1.6 °F 1020.2 in WNW 17.7 mph 17.7 mph 46 % 0.0 in 232.0 W/m2 CLR
12:40 9.4 °F -1.3 °F 1020.2 in NW 20.4 mph 20.4 mph 47 % 0.0 in 260.0 W/m2 CLR
12:45 9.4 °F -1.6 °F 1020.2 in WNW 18.5 mph 18.5 mph 46 % 0.0 in 264.0 W/m2 CLR
12:50 9.4 °F -1.3 °F 1020.2 in NW 16.7 mph 16.7 mph 47 % 0.0 in 251.0 W/m2 CLR
12:55 9.4 °F -1.3 °F 1020.2 in NW 3.2 mph 3.2 mph 47 % 0.0 in 218.0 W/m2 CLR
13:00 9.4 °F -1.6 °F 1020.2 in NW 14.8 mph 14.8 mph 46 % 0.0 in 165.0 W/m2 CLR
13:05 9.4 °F -1.3 °F 1020.2 in NNW 25.9 mph 25.9 mph 47 % 0.0 in 183.0 W/m2 CLR
13:10 9.4 °F -1.6 °F 1020.2 in NW 18.5 mph 18.5 mph 46 % 0.0 in 171.0 W/m2 CLR
13:15 9.4 °F -1.3 °F 1020.2 in NNW 18.5 mph 18.5 mph 47 % 0.0 in 214.0 W/m2 CLR
13:20 9.4 °F -1.1 °F 1020.2 in NNW 22.2 mph 22.2 mph 48 % 0.0 in 169.0 W/m2 CLR
13:25 9.4 °F -1.1 °F 1020.2 in North 18.5 mph 18.5 mph 48 % 0.0 in 204.0 W/m2 CLR
13:30 9.4 °F -0.7 °F 1020.2 in NNW 18.5 mph 18.5 mph 49 % 0.0 in 183.0 W/m2 CLR
13:35 9.4 °F -1.1 °F 1020.2 in NNW 20.9 mph 20.9 mph 48 % 0.0 in 155.0 W/m2 CLR
13:40 9.4 °F -1.1 °F 1020.2 in North 14.8 mph 14.8 mph 48 % 0.0 in 141.0 W/m2 CLR
13:45 8.9 °F -1.0 °F 1020.2 in NNE 14.8 mph 14.8 mph 50 % 0.0 in 109.0 W/m2 CLR
13:50 8.9 °F -0.7 °F 1020.2 in NNE 13.0 mph 13.0 mph 51 % 0.0 in 76.0 W/m2 CLR
13:56 8.9 °F -0.2 °F 1020.5 in NNE 14.5 mph 14.5 mph 53 % 0.0 in 60.0 W/m2 FEW
14:01 8.3 °F -0.4 °F 1020.2 in NW 32.2 mph 32.2 mph 54 % 0.0 in 74.0 W/m2 FEW
14:06 7.8 °F -0.4 °F 1020.2 in North 31.5 mph 31.5 mph 56 % 0.0 in 90.0 W/m2 FEW
14:11 7.8 °F -0.4 °F 1020.2 in NNE 24.1 mph 24.1 mph 56 % 0.0 in 118.0 W/m2 CLR
14:16 7.8 °F -0.2 °F 1020.2 in North 16.7 mph 16.7 mph 57 % 0.0 in 130.0 W/m2 CLR
14:21 7.8 °F -0.2 °F 1020.2 in North 20.9 mph 20.9 mph 57 % 0.0 in 123.0 W/m2 CLR
14:26 7.8 °F -0.2 °F 1020.2 in NNW 24.1 mph 24.1 mph 57 % 0.0 in 111.0 W/m2 CLR
14:31 7.8 °F 0.0 °F 1020.2 in North 18.5 mph 18.5 mph 58 % 0.0 in 139.0 W/m2 CLR
14:36 8.3 °F 0.8 °F 1019.9 in North 17.7 mph 17.7 mph 59 % 0.0 in 139.0 W/m2 CLR
14:41 7.8 °F 0.5 °F 1019.9 in North 35.2 mph 35.2 mph 60 % 0.0 in 90.0 W/m2 CLR
14:46 7.8 °F 1.2 °F 1020.2 in NNW 18.5 mph 18.5 mph 63 % 0.0 in 79.0 W/m2 CLR
14:51 7.2 °F 1.1 °F 1020.2 in North 22.2 mph 22.2 mph 65 % 0.0 in 72.0 W/m2 FEW
14:56 6.7 °F 1.6 °F 1020.2 in NNW 29.6 mph 29.6 mph 70 % 0.0 in 83.0 W/m2 FEW
15:01 6.1 °F 1.6 °F 1020.2 in NNW 18.5 mph 18.5 mph 73 % 0.0 in 97.0 W/m2 FEW
15:06 6.1 °F 2.2 °F 1020.2 in NNW 9.3 mph 9.3 mph 76 % 0.0 in 111.0 W/m2 CLR
15:11 6.1 °F 1.8 °F 1019.9 in NW 14.8 mph 14.8 mph 74 % 0.0 in 98.0 W/m2 CLR
15:16 6.1 °F 2.0 °F 1019.9 in NW 11.1 mph 11.1 mph 75 % 0.0 in 98.0 W/m2 CLR
15:21 6.1 °F 2.2 °F 1019.5 in Calm     76 % 0.0 in 91.0 W/m2 CLR
15:26 6.1 °F 2.2 °F 1019.5 in NW 5.6 mph 5.6 mph 76 % 0.0 in 121.0 W/m2 CLR
15:31 6.1 °F 2.2 °F 1019.5 in Calm     76 % 0.0 in 121.0 W/m2 CLR
15:36 6.1 °F 2.2 °F 1019.5 in Calm     76 % 0.0 in 114.0 W/m2 CLR
15:41 6.1 °F 2.2 °F 1019.2 in Calm     76 % 0.0 in 111.0 W/m2 CLR
15:46 6.1 °F 2.4 °F 1019.2 in Calm     77 % 0.0 in 98.0 W/m2 CLR
15:51 6.1 °F 2.2 °F 1019.2 in Calm     76 % 0.0 in 100.0 W/m2 CLR
15:56 6.1 °F 2.2 °F 1018.8 in Calm     76 % 0.0 in 105.0 W/m2 CLR
16:01 6.1 °F 2.2 °F 1019.2 in Calm     76 % 0.0 in 111.0 W/m2 CLR
16:06 6.7 °F 2.7 °F 1019.2 in Calm     76 % 0.0 in 91.0 W/m2 CLR
16:11 6.7 °F 2.7 °F 1019.2 in Calm     76 % 0.0 in 100.0 W/m2 CLR
16:16 6.7 °F 2.7 °F 1019.2 in Calm     76 % 0.0 in 81.0 W/m2 CLR
16:21 6.7 °F 2.7 °F 1019.2 in Calm     76 % 0.0 in 81.0 W/m2 CLR
16:26 6.7 °F 2.7 °F 1018.8 in Calm     76 % 0.0 in 72.0 W/m2 FEW
16:31 6.7 °F 2.7 °F 1018.8 in Calm     76 % 0.0 in 76.0 W/m2 FEW
16:36 6.7 °F 2.7 °F 1018.8 in Calm     76 % 0.0 in 69.0 W/m2 FEW
16:41 6.7 °F 2.7 °F 1018.8 in Calm     76 % 0.0 in 56.0 W/m2 SCT
16:46 6.7 °F 2.6 °F 1018.8 in Calm     75 % 0.0 in 63.0 W/m2 SCT
16:51 6.7 °F 2.7 °F 1018.8 in Calm     76 % 0.0 in 72.0 W/m2 SCT
16:56 6.7 °F 2.7 °F 1018.8 in Calm     76 % 0.0 in 67.0 W/m2 FEW
17:01 6.7 °F 2.7 °F 1018.8 in Calm     76 % 0.0 in 81.0 W/m2 FEW
17:06 7.2 °F 2.9 °F 1018.8 in NW 6.4 mph 6.4 mph 74 % 0.0 in 88.0 W/m2 FEW
17:11 7.2 °F 2.7 °F 1018.8 in NW 13.0 mph 13.0 mph 73 % 0.0 in 86.0 W/m2 FEW
17:16 7.2 °F 2.5 °F 1018.8 in NW 14.8 mph 14.8 mph 72 % 0.0 in 90.0 W/m2 CLR
17:21 7.2 °F 2.5 °F 1018.8 in NW 3.7 mph   72 % 0.0 in 74.0 W/m2 FEW
17:26 7.2 °F 2.3 °F 1018.8 in NW 11.1 mph 11.1 mph 71 % 0.0 in 62.0 W/m2 FEW
17:31 7.2 °F 2.3 °F 1018.8 in WNW 13.0 mph 13.0 mph 71 % 0.0 in 56.0 W/m2 SCT
17:36 7.2 °F 1.9 °F 1018.8 in WNW 13.0 mph 13.0 mph 69 % 0.0 in 47.0 W/m2 SCT
17:41 7.2 °F 1.7 °F 1018.8 in NW 12.9 mph 12.9 mph 68 % 0.0 in 33.0 W/m2 BKN
17:46 7.2 °F 1.7 °F 1018.8 in WNW 9.3 mph 9.3 mph 68 % 0.0 in 26.0 W/m2 BKN
17:51 7.2 °F 1.7 °F 1018.8 in WNW 11.1 mph 11.1 mph 68 % 0.0 in 18.0 W/m2 BKN
17:56 7.2 °F 1.7 °F 1019.2 in WNW 11.1 mph 11.1 mph 68 % 0.0 in 18.0 W/m2 BKN
18:01 7.2 °F 1.7 °F 1018.8 in NW 13.0 mph 13.0 mph 68 % 0.0 in 14.0 W/m2 BKN
18:06 6.7 °F 1.2 °F 1018.8 in WNW 14.8 mph 14.8 mph 68 % 0.0 in 12.0 W/m2 BKN
18:11 6.7 °F 1.2 °F 1018.8 in NW 14.8 mph 14.8 mph 68 % 0.0 in 9.0 W/m2 BKN
18:16 6.7 °F 1.2 °F 1018.8 in NW 14.8 mph 14.8 mph 68 % 0.0 in 7.0 W/m2 BKN
18:21 6.7 °F 1.4 °F 1019.2 in NW 7.4 mph 7.4 mph 69 % 0.0 in 7.0 W/m2 BKN
18:26 6.7 °F 1.4 °F 1019.2 in Calm     69 % 0.0 in 0.0 W/m2 OVC
18:31 6.7 °F 1.4 °F 1019.2 in NW 6.4 mph 6.4 mph 69 % 0.0 in 0.0 W/m2 OVC
18:36 6.7 °F 1.4 °F 1019.2 in WNW 6.4 mph 6.4 mph 69 % 0.0 in 0.0 W/m2 OVC
18:41 6.1 °F 0.7 °F 1019.2 in NW 13.0 mph 13.0 mph 68 % 0.0 in 0.0 W/m2 OVC
18:46 6.7 °F 1.2 °F 1018.8 in WNW 1.9 mph   68 % 0.0 in 0.0 W/m2 CLR
18:51 6.7 °F 1.2 °F 1019.2 in WNW 8.0 mph 8.0 mph 68 % 0.0 in 0.0 W/m2 CLR
18:56 6.7 °F 1.2 °F 1019.2 in Calm     68 % 0.0 in 0.0 W/m2 CLR
19:01 6.7 °F 1.2 °F 1019.2 in NW 9.3 mph 9.3 mph 68 % 0.0 in 0.0 W/m2 CLR
19:06 6.1 °F 0.7 °F 1019.2 in WNW 9.3 mph 9.3 mph 68 % 0.0 in 0.0 W/m2 CLR
19:11 6.1 °F 0.8 °F 1019.2 in NW 9.7 mph 9.7 mph 69 % 0.0 in 0.0 W/m2 CLR
19:16 5.6 °F 0.3 °F 1019.2 in NW 13.0 mph 13.0 mph 69 % 0.0 in 0.0 W/m2 CLR
19:21 5.6 °F 0.1 °F 1019.2 in NW 14.8 mph 14.8 mph 68 % 0.0 in 0.0 W/m2 CLR
19:26 5.0 °F -0.4 °F 1019.2 in NW 13.0 mph 13.0 mph 68 % 0.0 in 0.0 W/m2 CLR
19:31 5.0 °F -0.4 °F 1018.8 in NW 11.1 mph   68 % 0.0 in 0.0 W/m2 CLR
19:36 5.0 °F -0.4 °F 1018.8 in WNW 11.3 mph 11.3 mph 68 % 0.0 in 0.0 W/m2 CLR
19:41 4.4 °F -0.9 °F 1019.2 in WNW 16.7 mph 16.7 mph 68 % 0.0 in 0.0 W/m2 CLR
19:46 4.4 °F -1.2 °F 1019.2 in NW 14.8 mph 14.8 mph 67 % 0.0 in 0.0 W/m2 CLR
19:51 4.4 °F -1.2 °F 1019.2 in NW 16.7 mph 16.7 mph 67 % 0.0 in 0.0 W/m2 CLR
19:56 4.4 °F -1.2 °F 1019.2 in WNW 18.5 mph 18.5 mph 67 % 0.0 in 0.0 W/m2 CLR
20:01 4.4 °F -1.2 °F 1019.2 in NW 18.5 mph 18.5 mph 67 % 0.0 in 0.0 W/m2 CLR
20:06 4.4 °F -1.2 °F 1019.2 in NW 17.7 mph 17.7 mph 67 % 0.0 in 0.0 W/m2 CLR
20:11 5.6 °F -0.1 °F 1019.2 in NW 14.8 mph 14.8 mph 67 % 0.0 in 0.0 W/m2 CLR
20:16 6.1 °F 0.4 °F 1019.2 in NW 16.7 mph 16.7 mph 67 % 0.0 in 0.0 W/m2 CLR
20:21 6.1 °F 0.4 °F 1019.2 in NW 16.7 mph 16.7 mph 67 % 0.0 in 0.0 W/m2 CLR
20:26 6.1 °F 0.4 °F 1019.2 in NW 20.4 mph 20.4 mph 67 % 0.0 in 0.0 W/m2 CLR
20:31 6.1 °F 0.7 °F 1019.2 in NW 16.7 mph 16.7 mph 68 % 0.0 in 0.0 W/m2 CLR
20:36 6.1 °F 0.7 °F 1019.2 in NW 18.5 mph 18.5 mph 68 % 0.0 in 0.0 W/m2 CLR
20:41 6.1 °F 0.7 °F 1018.8 in NW 20.4 mph 20.4 mph 68 % 0.0 in 0.0 W/m2 CLR
20:46 6.7 °F 1.2 °F 1018.8 in NW 20.4 mph 20.4 mph 68 % 0.0 in 0.0 W/m2 CLR
20:51 6.7 °F 1.2 °F 1018.8 in WNW 24.1 mph 24.1 mph 68 % 0.0 in 0.0 W/m2 CLR
20:56 7.2 °F 1.7 °F 1018.8 in NW 24.1 mph 24.1 mph 68 % 0.0 in 0.0 W/m2 CLR
21:02 7.2 °F 1.7 °F 1018.8 in NW 20.4 mph 20.4 mph 68 % 0.0 in 0.0 W/m2 CLR
21:07 7.2 °F 1.7 °F 1019.2 in NW 22.2 mph 22.2 mph 68 % 0.0 in 0.0 W/m2 CLR
21:12 7.2 °F 1.9 °F 1019.2 in NW 18.5 mph 18.5 mph 69 % 0.0 in 0.0 W/m2 CLR
21:17 6.7 °F 1.4 °F 1019.2 in NW 18.5 mph 18.5 mph 69 % 0.0 in 0.0 W/m2 CLR
21:22 6.7 °F 1.4 °F 1019.5 in NNW 18.5 mph 18.5 mph 69 % 0.0 in 0.0 W/m2 CLR
21:27 6.7 °F 1.6 °F 1019.5 in NW 16.7 mph 16.7 mph 70 % 0.0 in 0.0 W/m2 CLR
21:32 6.7 °F 1.6 °F 1019.5 in NNW 18.5 mph 18.5 mph 70 % 0.0 in 0.0 W/m2 CLR
21:37 6.7 °F 1.6 °F 1019.5 in NW 16.7 mph 16.7 mph 70 % 0.0 in 0.0 W/m2 CLR
21:42 6.7 °F 1.6 °F 1019.5 in NW 18.5 mph 18.5 mph 70 % 0.0 in 0.0 W/m2 CLR
21:47 6.7 °F 1.6 °F 1019.5 in North 19.3 mph 19.3 mph 70 % 0.0 in 0.0 W/m2 CLR
21:52 7.2 °F 2.1 °F 1019.5 in NW 18.5 mph 18.5 mph 70 % 0.0 in 0.0 W/m2 CLR
21:57 7.2 °F 2.1 °F 1019.5 in NW 18.5 mph 18.5 mph 70 % 0.0 in 0.0 W/m2 CLR
22:02 6.7 °F 1.6 °F 1019.2 in NW 18.5 mph 18.5 mph 70 % 0.0 in 0.0 W/m2 CLR
22:07 6.7 °F 1.6 °F 1019.5 in NW 18.5 mph 18.5 mph 70 % 0.0 in 0.0 W/m2 CLR
22:12 6.7 °F 1.6 °F 1019.2 in NNW 16.7 mph 16.7 mph 70 % 0.0 in 0.0 W/m2 CLR
22:17 6.7 °F 1.8 °F 1019.2 in NW 14.8 mph 14.8 mph 71 % 0.0 in 0.0 W/m2 CLR
22:22 6.1 °F 1.2 °F 1019.2 in NW 14.8 mph 14.8 mph 71 % 0.0 in 0.0 W/m2 CLR
22:27 6.1 °F 1.4 °F 1019.5 in NW 16.7 mph 16.7 mph 72 % 0.0 in 0.0 W/m2 CLR
22:32 6.1 °F 1.4 °F 1019.5 in NW 19.3 mph 19.3 mph 72 % 0.0 in 0.0 W/m2 CLR
22:37 6.1 °F 1.4 °F 1019.5 in NW 18.5 mph 18.5 mph 72 % 0.0 in 0.0 W/m2 CLR
22:42 6.1 °F 1.6 °F 1019.5 in NW 18.5 mph 18.5 mph 73 % 0.0 in 0.0 W/m2 CLR
22:47 6.1 °F 1.6 °F 1019.5 in NNW 16.7 mph 16.7 mph 73 % 0.0 in 0.0 W/m2 CLR
22:52 6.1 °F 1.6 °F 1019.5 in North 18.5 mph 18.5 mph 73 % 0.0 in 0.0 W/m2 CLR
22:58 6.7 °F 2.3 °F 1019.5 in NNW 20.9 mph 20.9 mph 74 % 0.0 in 0.0 W/m2 CLR
23:03 6.7 °F 2.2 °F 1019.5 in NNW 18.5 mph 18.5 mph 73 % 0.0 in 0.0 W/m2 CLR
23:08 6.7 °F 2.3 °F 1019.5 in NNW 20.4 mph 20.4 mph 74 % 0.0 in 0.0 W/m2 CLR
23:13 6.7 °F 2.2 °F 1019.5 in NNW 18.5 mph 18.5 mph 73 % 0.0 in 0.0 W/m2 CLR
23:18 6.7 °F 2.3 °F 1019.5 in NNW 20.4 mph 20.4 mph 74 % 0.0 in 0.0 W/m2 CLR
23:23 6.7 °F 2.3 °F 1019.5 in NNW 18.5 mph 18.5 mph 74 % 0.0 in 0.0 W/m2 CLR
23:28 6.7 °F 2.3 °F 1019.5 in NW 18.5 mph 18.5 mph 74 % 0.0 in 0.0 W/m2 CLR
23:33 6.1 °F 1.8 °F 1019.5 in NW 14.8 mph 14.8 mph 74 % 0.0 in 0.0 W/m2 CLR
23:38 6.1 °F 1.8 °F 1019.5 in NW 17.7 mph 17.7 mph 74 % 0.0 in 0.0 W/m2 CLR
23:43 6.1 °F 1.8 °F 1019.5 in NW 16.7 mph 16.7 mph 74 % 0.0 in 0.0 W/m2 CLR
23:48 6.1 °F 2.0 °F 1019.5 in NW 16.7 mph 16.7 mph 75 % 0.0 in 0.0 W/m2 CLR
23:53 6.1 °F 2.2 °F 1019.5 in NNW 18.5 mph 18.5 mph 76 % 0.0 in 0.0 W/m2 CLR
23:58 6.1 °F 2.2 °F 1019.2 in NW 16.7 mph 16.7 mph 76 % 0.0 in 0.0 W/m2 CLR
Lo Temps de Massalio
Compliments of Weather Underground - 1.25 mb